< Cyclone 197101 1971 Season Cyclone 197103 >
Cyclone 197102 (CARMEN)
General InformationTrack Information on Google Maps || ResourceGoogle EarthGE AnimationAtom FeedGeoJSON
Detalied Best Track (Time Zone = UTC)
Year Month Day Hour Lat. Long. Pressure (hPa) Wind (kt) Class Image Chart
1970 11 20 00 -7.9 92.0 1002 0 0 -- --
1970 11 20 03 -8.4 91.7 1002 0 0 -- --
1970 11 20 06 -8.9 91.4 1002 0 0 -- --
1970 11 20 09 -9.4 91.1 1002 0 0 -- --
1970 11 20 12 -9.9 90.8 1001 0 0 -- --
1970 11 20 15 -10.4 90.6 1001 0 0 -- --
1970 11 20 18 -10.9 90.4 1001 0 0 -- --
1970 11 20 21 -11.4 90.2 1001 0 0 -- --
1970 11 21 00 -11.9 90.0 1001 0 0 -- --
1970 11 21 03 -12.1 90.0 1001 0 0 -- --
1970 11 21 06 -12.4 90.1 1001 0 0 -- --
1970 11 21 09 -12.6 90.2 1000 0 0 -- --
1970 11 21 12 -12.9 90.3 1000 0 0 -- --
1970 11 21 15 -13.2 90.4 1000 0 0 -- --
1970 11 21 18 -13.4 90.5 1000 0 0 -- --
1970 11 21 21 -13.6 90.6 999 0 0 -- --
1970 11 22 00 -13.8 90.8 998 0 0 -- --
1970 11 22 03 -14.1 90.9 997 0 0 -- --
1970 11 22 06 -14.4 91.0 996 0 0 -- --
1970 11 22 09 -14.7 91.1 995 0 0 -- --
1970 11 22 12 -14.9 91.1 994 0 0 -- --
1970 11 22 15 -15.1 91.2 993 0 0 -- --
1970 11 22 18 -15.3 91.2 992 0 0 -- --
1970 11 22 21 -15.5 91.2 991 0 0 -- --
1970 11 23 00 -15.7 91.2 990 0 0 -- --
1970 11 23 03 -16.0 91.1 990 0 0 -- --
1970 11 23 06 -16.3 91.0 992 0 0 -- --
1970 11 23 09 -16.6 90.9 994 0 0 -- --
1970 11 23 12 -16.8 90.8 996 0 0 -- --
1970 11 23 15 -17.0 90.7 998 0 0 -- --
1970 11 23 18 -17.1 90.5 999 0 0 -- --
1970 11 23 21 -17.3 90.3 1001 0 0 -- --
1970 11 24 00 -17.4 90.1 1002 0 0 -- --
1970 11 24 03 -17.6 89.7 1003 0 0 -- --
1970 11 24 06 -17.8 89.1 1003 0 0 -- --
1970 11 24 09 -18.0 88.6 1004 0 0 -- --
1970 11 24 12 -18.2 88.0 1004 0 0 -- --
1970 11 24 15 -18.3 87.6 1005 0 0 -- --
1970 11 24 18 -18.4 87.1 1005 0 0 -- --
1970 11 24 21 -18.5 86.6 1006 0 0 -- --
1970 11 25 00 -18.5 86.1 1006 0 0 -- --
1970 11 25 03 -18.5 85.6 1006 0 0 -- --
1970 11 25 06 -18.5 85.1 1006 0 0 -- --
1970 11 25 09 -18.4 84.6 1006 0 0 -- --
1970 11 25 12 -18.4 84.0 1006 0 0 -- --
1970 11 25 15 -18.3 83.3 1006 0 0 -- --
1970 11 25 18 -18.2 82.5 1006 0 0 -- --
1970 11 25 21 -18.1 81.3 1006 0 0 -- --
1970 11 26 00 -17.9 81.0 1006 0 0 -- --
< Cyclone 197101 1971 Season Cyclone 197103 >

Help